Time;durP1;ratioP1;P1;durP2;ratioP2;P2;SDS_P1;SDS_P2;PMS_P1;PMS_P2;Temp;Humidity;BMP_temperature;BMP_pressure;BME280_temperature;BME280_humidity;BME280_pressure;Samples;Min_cycle;Max_cycle;Signal;HPM_P1;HPM_P2
2024/04/22 00:00:31;;;;;;;;;;;5.20;1.00;;;;;;5415854;26;19954;-69
2024/04/22 00:02:57;;;;;;;;;;;5.20;1.00;;;;;;5417104;26;19933;-69
2024/04/22 00:05:22;;;;;;;;;;;5.20;1.00;;;;;;5417600;26;20379;-69
2024/04/22 00:07:48;;;;;;;;;;;5.20;1.00;;;;;;5417487;26;19936;-69
2024/04/22 00:10:13;;;;;;;;;;;5.20;1.00;;;;;;5417643;26;20273;-69
2024/04/22 00:12:39;;;;;;;;;;;5.20;1.00;;;;;;5417018;26;19929;-69
2024/04/22 00:15:04;;;;;;;;;;;5.20;1.00;;;;;;5417287;26;19933;-69
2024/04/22 00:17:30;;;;;;;;;;;5.20;1.00;;;;;;5417564;26;20628;-69
2024/04/22 00:19:57;;;;;;;;;;;5.20;1.00;;;;;;5415794;26;20265;-69
2024/04/22 00:22:22;;;;;;;;;;;5.20;1.00;;;;;;5416918;26;19936;-69
2024/04/22 00:24:48;;;;;;;;;;;5.20;1.00;;;;;;5417204;26;19929;-69
2024/04/22 00:27:13;;;;;;;;;;;5.20;1.00;;;;;;5417307;26;19936;-69
2024/04/22 00:29:39;;;;;;;;;;;5.10;1.00;;;;;;5417217;26;19998;-69
2024/04/22 00:32:04;;;;;;;;;;;5.10;1.00;;;;;;5416743;26;20057;-69
2024/04/22 00:34:30;;;;;;;;;;;4.90;1.00;;;;;;5417096;26;19970;-69
2024/04/22 00:36:55;;;;;;;;;;;4.70;1.00;;;;;;5417134;26;19929;-69
2024/04/22 00:39:21;;;;;;;;;;;4.60;1.00;;;;;;5417068;26;19941;-69
2024/04/22 00:41:46;;;;;;;;;;;4.60;1.00;;;;;;5416670;26;20275;-69
2024/04/22 00:44:12;;;;;;;;;;;4.50;1.00;;;;;;5416894;26;19929;-69
2024/04/22 00:46:38;;;;;;;;;;;4.60;1.00;;;;;;5417010;26;19937;-69
2024/04/22 00:49:03;;;;;;;;;;;4.60;1.00;;;;;;5416893;26;20293;-69
2024/04/22 00:51:29;;;;;;;;;;;4.70;1.00;;;;;;5416515;26;20266;-69
2024/04/22 00:53:55;;;;;;;;;;;4.70;1.00;;;;;;5416812;26;19930;-69
2024/04/22 00:56:20;;;;;;;;;;;4.70;1.00;;;;;;5416881;26;19961;-69
2024/04/22 00:58:47;;;;;;;;;;;4.70;1.00;;;;;;5415056;26;20330;-69
2024/04/22 01:01:13;;;;;;;;;;;4.70;1.00;;;;;;5414631;26;19976;-69
2024/04/22 01:03:39;;;;;;;;;;;4.60;1.00;;;;;;5416748;26;20357;-69
2024/04/22 01:06:04;;;;;;;;;;;4.70;1.00;;;;;;5416757;26;19957;-69
2024/04/22 01:08:30;;;;;;;;;;;4.60;1.00;;;;;;5416666;26;20352;-69
2024/04/22 01:10:57;;;;;;;;;;;4.50;1.00;;;;;;5416172;26;19998;-69
2024/04/22 01:13:22;;;;;;;;;;;4.50;1.00;;;;;;5416528;26;19929;-69
2024/04/22 01:15:48;;;;;;;;;;;4.40;1.00;;;;;;5414771;26;19997;-69
2024/04/22 01:18:19;;;;;;;;;;;4.40;1.50;;;;;;5416492;26;19929;-69
2024/04/22 01:20:45;;;;;;;;;;;4.40;3.60;;;;;;5416139;26;19936;-69
2024/04/22 01:23:10;;;;;;;;;;;4.30;6.90;;;;;;5416325;26;20381;-69
2024/04/22 01:25:42;;;;;;;;;;;4.10;10.60;;;;;;5416462;26;20024;-69
2024/04/22 01:28:08;;;;;;;;;;;4.00;14.20;;;;;;5416275;26;19929;-69
2024/04/22 01:30:34;;;;;;;;;;;4.10;18.20;;;;;;5415894;26;19933;-69
2024/04/22 01:33:00;;;;;;;;;;;4.10;19.70;;;;;;5415761;26;20270;-69
2024/04/22 01:35:25;;;;;;;;;;;4.10;20.80;;;;;;5416295;26;19929;-69
2024/04/22 01:37:51;;;;;;;;;;;4.20;19.30;;;;;;5416249;26;19936;-69
2024/04/22 01:40:16;;;;;;;;;;;4.00;16.70;;;;;;5416168;26;20275;-70
2024/04/22 01:42:42;;;;;;;;;;;3.90;20.80;;;;;;5415657;26;19937;-69
2024/04/22 01:45:08;;;;;;;;;;;4.00;24.30;;;;;;5415998;26;19936;-69
2024/04/22 01:47:34;;;;;;;;;;;4.00;26.00;;;;;;5416076;26;19940;-69
2024/04/22 01:50:00;;;;;;;;;;;4.00;28.10;;;;;;5415982;26;20284;-69
2024/04/22 01:52:25;;;;;;;;;;;4.10;29.70;;;;;;5415550;26;19960;-69
2024/04/22 01:54:51;;;;;;;;;;;4.00;28.50;;;;;;5415887;26;19936;-69
2024/04/22 01:57:16;;;;;;;;;;;4.00;31.30;;;;;;5415928;26;19929;-69
2024/04/22 01:59:41;;;;;;;;;;;4.00;33.60;;;;;;5415872;26;19929;-69
2024/04/22 02:02:07;;;;;;;;;;;4.00;33.80;;;;;;5415459;26;19929;-69
2024/04/22 02:04:32;;;;;;;;;;;4.00;32.80;;;;;;5415835;26;19936;-69
2024/04/22 02:06:58;;;;;;;;;;;4.00;33.60;;;;;;5415697;26;19957;-69
2024/04/22 02:09:23;;;;;;;;;;;4.10;34.20;;;;;;5415699;26;19929;-69
2024/04/22 02:11:50;;;;;;;;;;;4.10;34.40;;;;;;5415132;26;19929;-69
2024/04/22 02:14:15;;;;;;;;;;;4.20;35.40;;;;;;5415654;26;19929;-69
2024/04/22 02:16:41;;;;;;;;;;;4.20;34.20;;;;;;5415575;26;20361;-69
2024/04/22 02:19:06;;;;;;;;;;;4.20;33.30;;;;;;5415578;26;19941;-69
2024/04/22 02:21:32;;;;;;;;;;;4.10;33.20;;;;;;5413272;26;19928;-69
2024/04/22 02:23:57;;;;;;;;;;;4.00;36.70;;;;;;5415346;26;20284;-69
2024/04/22 02:26:23;;;;;;;;;;;4.00;40.00;;;;;;5415335;26;19932;-69
2024/04/22 02:28:53;;;;;;;;;;;4.10;40.00;;;;;;5415374;26;19929;-69
2024/04/22 02:31:19;;;;;;;;;;;4.10;41.10;;;;;;5414851;26;19936;-69
2024/04/22 02:33:44;;;;;;;;;;;4.10;35.90;;;;;;5415284;26;19979;-69
2024/04/22 02:36:10;;;;;;;;;;;4.10;36.70;;;;;;5415143;26;19929;-69
2024/04/22 02:38:35;;;;;;;;;;;4.10;37.30;;;;;;5415265;26;20260;-69
2024/04/22 02:41:01;;;;;;;;;;;4.10;38.80;;;;;;5415039;26;19940;-69
2024/04/22 02:43:26;;;;;;;;;;;4.10;36.00;;;;;;5416234;26;19941;-69
2024/04/22 02:45:51;;;;;;;;;;;4.00;36.10;;;;;;5418761;26;19939;-69
2024/04/22 02:48:17;;;;;;;;;;;4.10;37.60;;;;;;5418577;26;19966;-69
2024/04/22 02:50:42;;;;;;;;;;;4.10;40.60;;;;;;5418246;26;19939;-69
2024/04/22 02:53:08;;;;;;;;;;;4.10;41.20;;;;;;5418431;26;19933;-69
2024/04/22 02:55:33;;;;;;;;;;;4.10;42.70;;;;;;5418488;26;20357;-69
2024/04/22 02:57:59;;;;;;;;;;;4.10;43.70;;;;;;5418590;26;19929;-69
2024/04/22 03:00:25;;;;;;;;;;;4.20;44.60;;;;;;5418489;26;19936;-69
2024/04/22 03:02:50;;;;;;;;;;;4.30;43.80;;;;;;5418129;26;20272;-69
2024/04/22 03:05:16;;;;;;;;;;;4.20;39.30;;;;;;5418365;26;19957;-69
2024/04/22 03:07:42;;;;;;;;;;;4.10;40.50;;;;;;5418494;26;19929;-69
2024/04/22 03:10:08;;;;;;;;;;;4.00;43.50;;;;;;5418417;26;19936;-69
2024/04/22 03:12:34;;;;;;;;;;;4.00;44.50;;;;;;5417920;26;19928;-69
2024/04/22 03:15:00;;;;;;;;;;;3.90;45.80;;;;;;5418165;26;19929;-69
2024/04/22 03:17:25;;;;;;;;;;;3.90;49.00;;;;;;5418247;26;20437;-70
2024/04/22 03:19:51;;;;;;;;;;;3.80;50.40;;;;;;5418481;26;20336;-72
2024/04/22 03:22:17;;;;;;;;;;;3.90;52.20;;;;;;5417795;26;19940;-72
2024/04/22 03:24:43;;;;;;;;;;;4.00;50.80;;;;;;5416176;26;20368;-71
2024/04/22 03:27:08;;;;;;;;;;;3.90;52.50;;;;;;5418256;26;20376;-72
2024/04/22 03:29:34;;;;;;;;;;;3.80;51.80;;;;;;5418166;26;19929;-71
2024/04/22 03:31:59;;;;;;;;;;;3.80;54.50;;;;;;5417582;26;20376;-72
2024/04/22 03:34:25;;;;;;;;;;;3.80;55.60;;;;;;5417946;26;20299;-71
2024/04/22 03:36:50;;;;;;;;;;;3.70;56.90;;;;;;5417964;26;19929;-71
2024/04/22 03:39:16;;;;;;;;;;;3.70;60.40;;;;;;5417207;26;20374;-72
2024/04/22 03:41:41;;;;;;;;;;;3.70;63.20;;;;;;5417671;26;19929;-70
2024/04/22 03:44:08;;;;;;;;;;;3.70;65.90;;;;;;5417882;26;19976;-69
2024/04/22 03:52:02;;;;;;;;;;;3.70;70.60;;;;;;5417505;26;19936;-70
2024/04/22 03:54:27;;;;;;;;;;;3.80;71.00;;;;;;5417413;26;19929;-71
2024/04/22 03:56:53;;;;;;;;;;;3.80;69.80;;;;;;5417939;26;20379;-71
2024/04/22 03:59:18;;;;;;;;;;;3.80;65.20;;;;;;5417531;26;19998;-71
2024/04/22 04:01:44;;;;;;;;;;;3.70;64.20;;;;;;5417725;26;19936;-70
2024/04/22 04:04:09;;;;;;;;;;;3.60;66.00;;;;;;5417553;26;20361;-70
2024/04/22 04:06:35;;;;;;;;;;;3.60;68.10;;;;;;5417532;26;19929;-70
2024/04/22 04:09:00;;;;;;;;;;;3.60;69.40;;;;;;5417632;26;20279;-70
2024/04/22 04:11:33;;;;;;;;;;;3.60;71.10;;;;;;5417145;26;19929;-70
2024/04/22 04:13:59;;;;;;;;;;;3.60;71.90;;;;;;5417495;26;20381;-70
2024/04/22 04:16:26;;;;;;;;;;;3.60;74.80;;;;;;5417509;26;20276;-70
2024/04/22 04:18:51;;;;;;;;;;;3.60;76.60;;;;;;5417687;26;20001;-70
2024/04/22 04:21:17;;;;;;;;;;;3.60;80.90;;;;;;5416950;26;19937;-70
2024/04/22 04:23:43;;;;;;;;;;;3.60;80.40;;;;;;5417552;26;19935;-69
2024/04/22 04:26:08;;;;;;;;;;;3.60;86.30;;;;;;5417322;26;19929;-69
2024/04/22 04:28:34;;;;;;;;;;;3.70;90.50;;;;;;5417157;26;20001;-69
2024/04/22 04:31:00;;;;;;;;;;;3.70;92.90;;;;;;5416897;26;19936;-69
2024/04/22 04:33:26;;;;;;;;;;;3.70;93.40;;;;;;5417291;26;20279;-69
2024/04/22 04:35:57;;;;;;;;;;;3.70;94.80;;;;;;5417558;26;19929;-70
2024/04/22 04:38:22;;;;;;;;;;;3.70;97.10;;;;;;5417166;26;19929;-69
2024/04/22 04:40:48;;;;;;;;;;;3.90;97.70;;;;;;5416796;26;19929;-69
2024/04/22 04:43:13;;;;;;;;;;;3.90;97.10;;;;;;5416999;26;19944;-71
2024/04/22 04:45:39;;;;;;;;;;;4.00;97.00;;;;;;5417043;26;19929;-70
2024/04/22 04:48:05;;;;;;;;;;;4.00;96.70;;;;;;5416968;26;20481;-72
2024/04/22 04:50:30;;;;;;;;;;;4.10;96.70;;;;;;5417063;26;19935;-72
2024/04/22 04:52:55;;;;;;;;;;;4.10;96.80;;;;;;5416441;26;20027;-71
2024/04/22 04:55:21;;;;;;;;;;;4.20;96.60;;;;;;5416886;26;19953;-72
2024/04/22 04:57:46;;;;;;;;;;;4.20;94.90;;;;;;5416800;26;19981;-72
2024/04/22 05:00:12;;;;;;;;;;;4.10;96.30;;;;;;5416856;26;20385;-72
2024/04/22 05:02:37;;;;;;;;;;;4.10;96.30;;;;;;5416200;26;19936;-70
2024/04/22 05:05:03;;;;;;;;;;;4.20;98.20;;;;;;5416951;26;19929;-70
2024/04/22 05:07:28;;;;;;;;;;;4.30;98.30;;;;;;5415723;26;19941;-70
2024/04/22 05:09:54;;;;;;;;;;;4.40;97.10;;;;;;5416718;26;20387;-70
2024/04/22 05:12:19;;;;;;;;;;;4.40;97.20;;;;;;5416129;26;19935;-70
2024/04/22 05:14:45;;;;;;;;;;;4.50;97.10;;;;;;5416487;26;19932;-70
2024/04/22 05:17:10;;;;;;;;;;;4.60;97.80;;;;;;5416488;26;19961;-70
2024/04/22 05:19:36;;;;;;;;;;;4.60;97.30;;;;;;5416421;26;19941;-70
2024/04/22 05:22:01;;;;;;;;;;;4.50;97.50;;;;;;5436342;26;19929;-70
2024/04/22 05:24:27;;;;;;;;;;;4.40;99.90;;;;;;5452189;26;19935;-70
2024/04/22 05:26:52;;;;;;;;;;;4.40;99.90;;;;;;5452248;26;19935;-70
2024/04/22 05:29:18;;;;;;;;;;;4.40;99.90;;;;;;5452322;26;19936;-70
2024/04/22 05:31:43;;;;;;;;;;;4.40;99.90;;;;;;5452088;26;19996;-70
2024/04/22 05:36:53;;;;;;;;;;;4.30;99.90;;;;;;5452402;26;19935;-70
2024/04/22 05:39:18;;;;;;;;;;;4.30;99.90;;;;;;5451983;26;20264;-70
2024/04/22 05:41:44;;;;;;;;;;;4.30;99.90;;;;;;5451618;26;19935;-70
2024/04/22 05:44:09;;;;;;;;;;;4.30;99.90;;;;;;5452018;26;19938;-70
2024/04/22 05:46:35;;;;;;;;;;;4.30;99.90;;;;;;5450085;26;19928;-70
2024/04/22 05:49:00;;;;;;;;;;;4.30;99.90;;;;;;5451854;26;19928;-70
2024/04/22 05:51:26;;;;;;;;;;;4.40;99.90;;;;;;5451434;26;20277;-72
2024/04/22 05:53:51;;;;;;;;;;;4.50;99.90;;;;;;5451832;26;19964;-72
2024/04/22 05:56:17;;;;;;;;;;;4.60;99.90;;;;;;5451944;26;19928;-71
2024/04/22 05:58:42;;;;;;;;;;;4.70;99.90;;;;;;5451673;26;19935;-72
2024/04/22 06:01:08;;;;;;;;;;;4.80;99.90;;;;;;5451413;26;19928;-70
2024/04/22 06:03:34;;;;;;;;;;;4.90;99.90;;;;;;5451711;26;19936;-70
2024/04/22 06:06:00;;;;;;;;;;;4.90;99.90;;;;;;5451684;26;19997;-70
2024/04/22 06:08:25;;;;;;;;;;;4.90;99.90;;;;;;5451573;26;19941;-70
2024/04/22 06:10:51;;;;;;;;;;;4.80;99.90;;;;;;5451180;26;19928;-70
2024/04/22 06:13:17;;;;;;;;;;;4.80;99.90;;;;;;5451315;26;19928;-70
2024/04/22 06:15:43;;;;;;;;;;;4.80;99.90;;;;;;5451436;26;20261;-70
2024/04/22 06:18:08;;;;;;;;;;;4.80;99.90;;;;;;5453766;26;20327;-70
2024/04/22 06:20:33;;;;;;;;;;;4.80;99.90;;;;;;5454908;26;19933;-70
2024/04/22 06:22:59;;;;;;;;;;;4.90;99.90;;;;;;5454359;26;20429;-70
2024/04/22 06:25:24;;;;;;;;;;;5.00;99.90;;;;;;5454873;26;19935;-70
2024/04/22 06:27:50;;;;;;;;;;;5.00;99.90;;;;;;5454848;26;19928;-70
2024/04/22 06:30:16;;;;;;;;;;;5.00;99.90;;;;;;5454726;26;20379;-70
2024/04/22 06:32:41;;;;;;;;;;;5.00;99.90;;;;;;5454419;26;20000;-69
2024/04/22 06:35:07;;;;;;;;;;;5.10;99.90;;;;;;5454733;26;19929;-67
2024/04/22 06:37:32;;;;;;;;;;;5.00;99.90;;;;;;5437206;26;19930;-68
2024/04/22 06:39:58;;;;;;;;;;;5.10;99.90;;;;;;5407284;26;19961;-68
2024/04/22 06:42:23;;;;;;;;;;;5.20;99.90;;;;;;5400352;26;19953;-69
2024/04/22 06:44:49;;;;;;;;;;;5.20;99.90;;;;;;5399074;26;20027;-69
2024/04/22 06:47:14;;;;;;;;;;;5.20;99.90;;;;;;5402529;26;19952;-69
2024/04/22 06:49:40;;;;;;;;;;;5.30;99.90;;;;;;5399301;26;19930;-69
2024/04/22 06:52:06;;;;;;;;;;;5.30;99.90;;;;;;5399741;26;19953;-69
2024/04/22 06:54:31;;;;;;;;;;;5.30;99.90;;;;;;5402080;26;19937;-69
2024/04/22 06:56:56;;;;;;;;;;;5.40;99.90;;;;;;5413640;26;19935;-69
2024/04/22 06:59:22;;;;;;;;;;;5.40;99.90;;;;;;5413272;26;20346;-70
2024/04/22 07:01:48;;;;;;;;;;;5.50;99.90;;;;;;5398496;26;19956;-70
2024/04/22 07:04:13;;;;;;;;;;;5.70;99.90;;;;;;5407719;26;19929;-70
2024/04/22 07:06:39;;;;;;;;;;;5.70;99.70;;;;;;5418326;26;20368;-70
2024/04/22 07:09:09;;;;;;;;;;;5.90;99.90;;;;;;5418405;26;19929;-70
2024/04/22 07:11:35;;;;;;;;;;;6.00;99.90;;;;;;5418013;26;19929;-70
2024/04/22 07:14:01;;;;;;;;;;;6.20;99.90;;;;;;5418169;26;19936;-70
2024/04/22 07:16:27;;;;;;;;;;;6.30;94.70;;;;;;5418396;26;20360;-69
2024/04/22 07:18:53;;;;;;;;;;;6.30;93.10;;;;;;5418286;26;19929;-69
2024/04/22 07:21:18;;;;;;;;;;;6.30;90.00;;;;;;5417990;26;19936;-71
2024/04/22 07:23:44;;;;;;;;;;;6.50;92.20;;;;;;5418182;26;19936;-70
2024/04/22 07:26:09;;;;;;;;;;;6.80;93.60;;;;;;5418291;26;20404;-68
2024/04/22 07:28:35;;;;;;;;;;;7.10;75.80;;;;;;5417354;26;19929;-69
2024/04/22 07:31:01;;;;;;;;;;;7.20;69.80;;;;;;5418040;26;19929;-68
2024/04/22 07:33:27;;;;;;;;;;;7.40;52.40;;;;;;5418001;26;19936;-69
2024/04/22 07:35:54;;;;;;;;;;;7.30;42.90;;;;;;5418015;26;20408;-71
2024/04/22 07:38:23;;;;;;;;;;;7.20;39.80;;;;;;5418141;26;19933;-68
2024/04/22 07:40:48;;;;;;;;;;;7.10;43.90;;;;;;5417579;26;19929;-72
2024/04/22 07:43:14;;;;;;;;;;;7.10;43.40;;;;;;5417798;26;19929;-68
2024/04/22 07:45:39;;;;;;;;;;;7.10;34.40;;;;;;5417874;26;19929;-68
2024/04/22 07:48:06;;;;;;;;;;;7.10;39.60;;;;;;5417851;26;19936;-69
2024/04/22 07:50:32;;;;;;;;;;;7.30;41.00;;;;;;5417935;26;19941;-70
2024/04/22 07:52:57;;;;;;;;;;;7.50;33.90;;;;;;5417359;26;20257;-68
2024/04/22 07:55:23;;;;;;;;;;;7.40;27.10;;;;;;5417792;26;19935;-70
2024/04/22 07:57:49;;;;;;;;;;;7.20;28.00;;;;;;5417642;26;19930;-70
2024/04/22 08:00:15;;;;;;;;;;;7.20;30.10;;;;;;5417701;26;19929;-72
2024/04/22 08:02:41;;;;;;;;;;;7.30;27.80;;;;;;5417622;26;19929;-71
2024/04/22 08:05:07;;;;;;;;;;;7.30;21.20;;;;;;5417501;26;19936;-71
2024/04/22 08:07:33;;;;;;;;;;;7.40;23.00;;;;;;5417665;26;20323;-70
2024/04/22 08:09:59;;;;;;;;;;;7.50;30.40;;;;;;5417597;26;19935;-70
2024/04/22 08:12:25;;;;;;;;;;;7.70;26.10;;;;;;5414567;26;19997;-72
2024/04/22 08:14:51;;;;;;;;;;;7.90;16.50;;;;;;5417395;26;20612;-72
2024/04/22 08:17:16;;;;;;;;;;;8.10;12.90;;;;;;5417471;26;20001;-73
2024/04/22 08:19:42;;;;;;;;;;;8.00;6.30;;;;;;5417104;26;19948;-72
2024/04/22 08:22:08;;;;;;;;;;;8.20;9.30;;;;;;5416800;26;19936;-72
2024/04/22 08:24:33;;;;;;;;;;;8.40;3.40;;;;;;5417142;26;19929;-70
2024/04/22 08:27:00;;;;;;;;;;;8.50;1.00;;;;;;5417412;26;19936;-73
2024/04/22 08:29:25;;;;;;;;;;;8.60;1.00;;;;;;5417498;26;19937;-71
2024/04/22 08:31:51;;;;;;;;;;;8.60;1.00;;;;;;5416741;26;19929;-72
2024/04/22 08:34:17;;;;;;;;;;;8.60;1.00;;;;;;5417178;26;20724;-72
2024/04/22 08:36:42;;;;;;;;;;;8.80;1.00;;;;;;5417162;26;19941;-72
2024/04/22 08:39:08;;;;;;;;;;;9.10;1.00;;;;;;5401409;26;19930;-71
2024/04/22 08:41:36;;;;;;;;;;;9.20;1.00;;;;;;5415241;26;19929;-71
2024/04/22 08:44:02;;;;;;;;;;;9.30;1.00;;;;;;5417023;26;19933;-72
2024/04/22 08:46:28;;;;;;;;;;;9.60;1.00;;;;;;5417269;26;19929;-72
2024/04/22 08:48:53;;;;;;;;;;;9.70;1.00;;;;;;5416884;26;19936;-70
2024/04/22 08:51:19;;;;;;;;;;;9.80;1.00;;;;;;5416546;26;19933;-72
2024/04/22 08:53:45;;;;;;;;;;;9.70;1.00;;;;;;5416752;26;20277;-72
2024/04/22 08:56:10;;;;;;;;;;;9.50;1.00;;;;;;5416831;26;19929;-71
2024/04/22 08:58:36;;;;;;;;;;;9.40;1.00;;;;;;5416880;26;20322;-72
2024/04/22 09:01:07;;;;;;;;;;;9.60;1.00;;;;;;5416691;26;19940;-73
2024/04/22 09:03:33;;;;;;;;;;;10.00;1.00;;;;;;5416845;26;20303;-73
2024/04/22 09:05:59;;;;;;;;;;;10.20;1.00;;;;;;5417001;26;19936;-72
2024/04/22 09:08:24;;;;;;;;;;;10.40;1.00;;;;;;5416767;26;20294;-72
2024/04/22 09:10:57;;;;;;;;;;;10.70;1.00;;;;;;5416471;26;19933;-71
2024/04/22 09:13:22;;;;;;;;;;;11.00;1.00;;;;;;5416613;26;19936;-72
2024/04/22 09:15:57;;;;;;;;;;;11.10;1.00;;;;;;5416562;26;19961;-72
2024/04/22 09:18:26;;;;;;;;;;;11.20;1.00;;;;;;5416606;26;20264;-68
2024/04/22 09:20:53;;;;;;;;;;;11.30;1.00;;;;;;5416163;26;19938;-69
2024/04/22 09:23:18;;;;;;;;;;;11.50;1.00;;;;;;5416483;26;19929;-70
2024/04/22 09:25:44;;;;;;;;;;;11.70;1.00;;;;;;5416502;26;20364;-68
2024/04/22 09:28:10;;;;;;;;;;;11.90;1.00;;;;;;5416458;26;19929;-68
2024/04/22 09:30:40;;;;;;;;;;;12.00;1.00;;;;;;5416444;26;19929;-69
2024/04/22 09:33:09;;;;;;;;;;;12.20;1.00;;;;;;5416164;26;19929;-70
2024/04/22 09:35:35;;;;;;;;;;;12.20;1.00;;;;;;5416308;26;19929;-70
2024/04/22 09:38:01;;;;;;;;;;;12.30;1.00;;;;;;5416512;26;19929;-70
2024/04/22 09:40:27;;;;;;;;;;;12.30;1.00;;;;;;5416272;26;19936;-69
2024/04/22 09:42:53;;;;;;;;;;;12.20;1.00;;;;;;5415629;26;19937;-69
2024/04/22 09:45:19;;;;;;;;;;;12.20;1.00;;;;;;5416558;26;19933;-71
2024/04/22 09:47:45;;;;;;;;;;;12.20;1.00;;;;;;5416207;26;20356;-72
2024/04/22 09:50:11;;;;;;;;;;;12.20;1.00;;;;;;5416306;26;20364;-69
2024/04/22 09:52:40;;;;;;;;;;;12.40;1.00;;;;;;5414882;26;19998;-72
2024/04/22 09:55:06;;;;;;;;;;;12.40;1.00;;;;;;5415842;26;19935;-69
2024/04/22 09:57:34;;;;;;;;;;;12.20;1.00;;;;;;5415927;26;19929;-71
2024/04/22 10:00:00;;;;;;;;;;;12.30;1.00;;;;;;5415850;26;19937;-70
2024/04/22 10:02:26;;;;;;;;;;;12.30;1.00;;;;;;5415535;26;19936;-70
2024/04/22 10:04:52;;;;;;;;;;;11.80;1.00;;;;;;5415749;26;19929;-70
2024/04/22 10:07:18;;;;;;;;;;;10.70;1.00;;;;;;5415908;26;19933;-70
2024/04/22 10:09:48;;;;;;;;;;;9.50;1.00;;;;;;5415710;26;19936;-70
2024/04/22 10:12:13;;;;;;;;;;;8.80;1.00;;;;;;5415219;26;20262;-70
2024/04/22 10:14:38;;;;;;;;;;;8.40;1.00;;;;;;5415415;26;19957;-70
2024/04/22 10:17:05;;;;;;;;;;;8.30;1.00;;;;;;5415720;26;19928;-70
2024/04/22 10:19:32;;;;;;;;;;;8.30;1.00;;;;;;5415534;26;19969;-70
2024/04/22 10:21:59;;;;;;;;;;;8.30;1.00;;;;;;5415051;26;20374;-70
2024/04/22 10:24:35;;;;;;;;;;;8.20;1.00;;;;;;5415398;26;19998;-70
2024/04/22 10:27:05;;;;;;;;;;;8.30;1.00;;;;;;5415418;26;20361;-70
2024/04/22 10:29:30;;;;;;;;;;;8.40;1.00;;;;;;5415323;26;19929;-70
2024/04/22 10:31:56;;;;;;;;;;;8.50;1.00;;;;;;5414872;26;19936;-70
2024/04/22 10:34:21;;;;;;;;;;;8.60;1.00;;;;;;5415298;26;20450;-71
2024/04/22 10:36:47;;;;;;;;;;;8.90;1.00;;;;;;5415236;26;19929;-68
2024/04/22 10:39:12;;;;;;;;;;;9.30;1.00;;;;;;5415060;26;19957;-68
2024/04/22 10:41:38;;;;;;;;;;;9.80;1.00;;;;;;5414642;26;20261;-70
2024/04/22 10:44:03;;;;;;;;;;;10.20;1.00;;;;;;5415086;26;19941;-68
2024/04/22 10:46:29;;;;;;;;;;;10.20;1.00;;;;;;5412398;26;20002;-69
2024/04/22 10:48:55;;;;;;;;;;;10.20;1.00;;;;;;5399495;26;19961;-69
2024/04/22 10:51:20;;;;;;;;;;;10.50;1.00;;;;;;5383797;26;19937;-69
2024/04/22 10:53:46;;;;;;;;;;;10.70;1.00;;;;;;5379163;26;19929;-68
2024/04/22 10:56:11;;;;;;;;;;;11.00;1.00;;;;;;5379369;26;19995;-69
2024/04/22 10:58:37;;;;;;;;;;;11.20;1.00;;;;;;5379297;26;19929;-69
2024/04/22 11:01:03;;;;;;;;;;;11.50;1.00;;;;;;5378762;26;19940;-69
2024/04/22 11:03:28;;;;;;;;;;;11.60;1.00;;;;;;5393007;26;20280;-69
2024/04/22 11:06:02;;;;;;;;;;;11.80;1.00;;;;;;5417700;26;19956;-68
2024/04/22 11:08:28;;;;;;;;;;;11.90;1.00;;;;;;5417480;26;20312;-71
2024/04/22 11:10:54;;;;;;;;;;;12.00;1.00;;;;;;5418021;26;19936;-69
2024/04/22 11:13:20;;;;;;;;;;;11.90;1.00;;;;;;5418118;26;19929;-69
2024/04/22 11:15:45;;;;;;;;;;;11.60;1.00;;;;;;5417967;26;19937;-71
2024/04/22 11:18:10;;;;;;;;;;;11.20;1.00;;;;;;5418098;26;19929;-72
2024/04/22 11:20:36;;;;;;;;;;;10.80;1.00;;;;;;5418773;26;19935;-71
2024/04/22 11:23:01;;;;;;;;;;;10.60;1.00;;;;;;5417235;26;20000;-71
2024/04/22 11:25:27;;;;;;;;;;;10.50;1.00;;;;;;5418157;26;19998;-70
2024/04/22 11:27:53;;;;;;;;;;;10.20;1.00;;;;;;5418197;26;19958;-70
2024/04/22 11:30:19;;;;;;;;;;;10.00;1.00;;;;;;5417835;26;20365;-70
2024/04/22 11:32:44;;;;;;;;;;;10.00;1.00;;;;;;5417932;26;19935;-70
2024/04/22 11:35:10;;;;;;;;;;;10.20;1.00;;;;;;5417958;26;20338;-70
2024/04/22 11:37:36;;;;;;;;;;;10.50;1.00;;;;;;5417818;26;19935;-71
2024/04/22 11:40:02;;;;;;;;;;;11.00;1.00;;;;;;5417769;26;19945;-71
2024/04/22 11:42:27;;;;;;;;;;;11.30;1.00;;;;;;5417934;26;20002;-71
2024/04/22 11:44:53;;;;;;;;;;;11.40;1.00;;;;;;5417878;26;19937;-71
2024/04/22 11:47:18;;;;;;;;;;;11.50;1.00;;;;;;5417319;26;20292;-71
2024/04/22 11:49:44;;;;;;;;;;;11.60;1.00;;;;;;5417760;26;19941;-71
2024/04/22 11:52:10;;;;;;;;;;;11.80;1.00;;;;;;5417135;26;20006;-71
2024/04/22 11:54:35;;;;;;;;;;;11.70;1.00;;;;;;5417512;26;20449;-71
2024/04/22 11:57:00;;;;;;;;;;;11.90;1.00;;;;;;5417720;26;19929;-71
2024/04/22 11:59:26;;;;;;;;;;;12.40;1.00;;;;;;5417744;26;19998;-71
2024/04/22 12:01:51;;;;;;;;;;;13.60;1.00;;;;;;5417246;26;20284;-71
2024/04/22 12:04:17;;;;;;;;;;;14.50;1.00;;;;;;5417710;26;19929;-71
2024/04/22 12:06:43;;;;;;;;;;;14.40;1.00;;;;;;5417419;26;20409;-71
2024/04/22 12:09:08;;;;;;;;;;;14.40;1.00;;;;;;5417318;26;19929;-71
2024/04/22 12:11:34;;;;;;;;;;;14.30;1.00;;;;;;5417018;26;19929;-71
2024/04/22 12:14:00;;;;;;;;;;;13.60;1.00;;;;;;5417435;26;19932;-70
2024/04/22 12:16:26;;;;;;;;;;;13.20;1.00;;;;;;5417297;26;19929;-71
2024/04/22 12:18:52;;;;;;;;;;;13.00;1.00;;;;;;5417251;26;20373;-71
2024/04/22 12:21:17;;;;;;;;;;;12.70;1.00;;;;;;5416971;26;19936;-71
2024/04/22 12:23:44;;;;;;;;;;;12.40;1.00;;;;;;5395820;26;19994;-71
2024/04/22 12:26:10;;;;;;;;;;;12.10;1.00;;;;;;5397060;26;20390;-71
2024/04/22 12:28:35;;;;;;;;;;;12.10;1.00;;;;;;5417235;26;19998;-73
2024/04/22 12:31:01;;;;;;;;;;;12.30;1.00;;;;;;5417189;26;19929;-70
2024/04/22 12:33:26;;;;;;;;;;;12.50;1.00;;;;;;5414318;26;20361;-72
2024/04/22 12:35:52;;;;;;;;;;;12.40;1.00;;;;;;5417238;26;19937;-71
2024/04/22 12:38:17;;;;;;;;;;;12.70;1.00;;;;;;5416498;26;19929;-72
2024/04/22 12:40:43;;;;;;;;;;;13.00;1.00;;;;;;5416581;26;19941;-72
2024/04/22 12:43:09;;;;;;;;;;;12.90;1.00;;;;;;5416987;26;19929;-71
2024/04/22 12:45:35;;;;;;;;;;;12.90;1.00;;;;;;5417013;26;19936;-71
2024/04/22 12:50:46;;;;;;;;;;;12.80;1.00;;;;;;5415941;26;20007;-72
2024/04/22 12:53:12;;;;;;;;;;;12.60;1.00;;;;;;5391456;26;19941;-69
2024/04/22 12:55:38;;;;;;;;;;;12.90;1.00;;;;;;5398733;26;20006;-72
2024/04/22 12:58:04;;;;;;;;;;;13.10;1.00;;;;;;5405382;26;19930;-72
2024/04/22 13:00:29;;;;;;;;;;;13.00;1.00;;;;;;5401337;26;20381;-71
2024/04/22 13:02:55;;;;;;;;;;;12.90;1.00;;;;;;5398250;26;19997;-71
2024/04/22 13:05:21;;;;;;;;;;;13.30;1.00;;;;;;5398628;26;19937;-72
2024/04/22 13:07:46;;;;;;;;;;;14.20;1.00;;;;;;5411569;26;20376;-70
2024/04/22 13:10:12;;;;;;;;;;;14.80;1.00;;;;;;5414087;26;19929;-69
2024/04/22 13:12:37;;;;;;;;;;;15.30;1.00;;;;;;5385382;26;19937;-69
2024/04/22 13:15:03;;;;;;;;;;;15.70;1.00;;;;;;5380981;26;19933;-70
2024/04/22 13:17:29;;;;;;;;;;;16.20;1.00;;;;;;5380855;26;19941;-70
2024/04/22 13:19:54;;;;;;;;;;;17.20;1.00;;;;;;5380856;26;19935;-70
2024/04/22 13:22:20;;;;;;;;;;;18.20;1.00;;;;;;5380334;26;20361;-69
2024/04/22 13:24:45;;;;;;;;;;;19.10;1.00;;;;;;5380781;26;19933;-70
2024/04/22 13:27:11;;;;;;;;;;;19.60;1.00;;;;;;5380277;26;20365;-71
2024/04/22 13:29:36;;;;;;;;;;;20.20;1.00;;;;;;5380542;26;19999;-71
2024/04/22 13:32:02;;;;;;;;;;;21.20;1.00;;;;;;5380279;26;19937;-71
2024/04/22 13:34:28;;;;;;;;;;;21.30;1.00;;;;;;5380635;26;19930;-71
2024/04/22 13:36:55;;;;;;;;;;;21.40;1.00;;;;;;5380372;26;20265;-70
2024/04/22 13:39:21;;;;;;;;;;;21.90;1.00;;;;;;5380628;26;20254;-71
2024/04/22 13:41:46;;;;;;;;;;;21.80;1.00;;;;;;5380410;26;19936;-71
2024/04/22 13:44:12;;;;;;;;;;;21.80;1.00;;;;;;5380499;26;19941;-71
2024/04/22 13:46:38;;;;;;;;;;;22.10;1.00;;;;;;5380402;26;19929;-70
2024/04/22 13:49:03;;;;;;;;;;;21.20;1.00;;;;;;5380645;26;19929;-71
2024/04/22 13:51:29;;;;;;;;;;;20.60;1.00;;;;;;5377348;26;19929;-71
2024/04/22 13:53:54;;;;;;;;;;;20.80;1.00;;;;;;5387437;26;19929;-70
2024/04/22 13:56:19;;;;;;;;;;;20.90;1.00;;;;;;5382022;26;20302;-69
2024/04/22 13:58:45;;;;;;;;;;;21.20;1.00;;;;;;5379835;26;19930;-70
2024/04/22 14:01:11;;;;;;;;;;;21.40;1.00;;;;;;5379937;26;19941;-69
2024/04/22 14:03:36;;;;;;;;;;;22.10;1.00;;;;;;5380135;26;19929;-70
2024/04/22 14:06:01;;;;;;;;;;;22.70;1.00;;;;;;5379836;26;19930;-69
2024/04/22 14:08:27;;;;;;;;;;;22.80;1.00;;;;;;5379916;26;19929;-72
2024/04/22 14:10:52;;;;;;;;;;;22.80;1.00;;;;;;5379820;26;20289;-71
2024/04/22 14:13:18;;;;;;;;;;;22.50;1.00;;;;;;5389090;26;20022;-72
2024/04/22 14:15:43;;;;;;;;;;;22.00;1.00;;;;;;5395623;26;20380;-70
2024/04/22 14:18:09;;;;;;;;;;;22.00;1.00;;;;;;5400253;26;20440;-72
2024/04/22 14:20:34;;;;;;;;;;;22.00;1.00;;;;;;5400206;26;19940;-72
2024/04/22 14:23:00;;;;;;;;;;;21.70;1.00;;;;;;5394690;26;19929;-71
2024/04/22 14:25:25;;;;;;;;;;;19.50;1.00;;;;;;5410044;26;19936;-71
2024/04/22 14:27:51;;;;;;;;;;;17.10;1.00;;;;;;5414945;26;19936;-70
2024/04/22 14:30:16;;;;;;;;;;;15.70;1.00;;;;;;5415189;26;19935;-71
2024/04/22 14:32:42;;;;;;;;;;;14.10;1.00;;;;;;5414716;26;19945;-72
2024/04/22 14:35:07;;;;;;;;;;;13.10;1.00;;;;;;5415294;26;19933;-71